EKAH/AAR METAR and TAF weather

Enter ICAO airport designator
Station Type Date Time Source
EKAH METAR 2020/07/14 16:50 UTC NOAA

EKAH 141650Z AUTO 20004KT 140V250 9999NDV DZ FEW008/// BKN012/// BKN062/// 16/15 Q1011


Station Type Date Time Source
EKAH Decoded METAR 2020/07/14 16:50 UTC NOAA

Tirstrup, Denmark (EKAH) 56-18N 010-37E 25M
Jul 14, 2020 - 12:50 PM EDT / 2020.07.14 1650 UTC
Wind: from the SSW (200 degrees) at 5 MPH (4 KT) (direction variable):0
Sky conditions: mostly cloudy
Weather: drizzle
Temperature: 60 F (16 C)
Dew Point: 59 F (15 C)
Relative Humidity: 93%
Pressure (altimeter): 29.85 in. Hg (1011 hPa)
ob: EKAH 141650Z AUTO 20004KT 140V250 9999NDV DZ FEW008/// BKN012/// BKN062/// 16/15 Q1011
cycle: 17

Station Type Date Time Source
EKAH TAF 2020/07/14 12:15 UTC NOAA

TAF EKAH 141108Z 1412/1512 19008KT 9999 SCT008 BKN020
TEMPO 1412/1512 4000 SHRA BKN008 SCT020CB
BECMG 1500/1503 30008KT

Example: see airport list